Time;durP1;ratioP1;P1;durP2;ratioP2;P2;SDS_P1;SDS_P2;PMS_P1;PMS_P2;Temp;Humidity;BMP_temperature;BMP_pressure;BME280_temperature;BME280_humidity;BME280_pressure;Samples;Min_cycle;Max_cycle;Signal;HPM_P1;HPM_P2
2022/06/15 00:01:30;;;;;;;3.43;2.87;;;;;;;;;;4988481;28;20731;-73
2022/06/15 00:03:55;;;;;;;3.47;2.50;;;;;;;;;;4972953;28;20218;-74
2022/06/15 00:06:25;;;;;;;2.43;2.17;;;;;;;;;;4988533;28;20361;-74
2022/06/15 00:08:52;;;;;;;3.13;2.83;;;;;;;;;;4969302;28;20257;-74
2022/06/15 00:11:22;;;;;;;3.63;2.40;;;;;;;;;;4946334;28;20678;-73
2022/06/15 00:13:52;;;;;;;3.53;2.47;;;;;;;;;;4965885;28;20233;-73
2022/06/15 00:16:20;;;;;;;3.13;2.43;;;;;;;;;;4951493;28;20230;-73
2022/06/15 00:18:46;;;;;;;3.80;2.63;;;;;;;;;;4972627;28;20267;-72
2022/06/15 00:21:14;;;;;;;2.37;2.17;;;;;;;;;;4971373;28;20229;-73
2022/06/15 00:23:42;;;;;;;4.07;2.53;;;;;;;;;;4972098;28;20360;-72
2022/06/15 00:26:10;;;;;;;2.50;2.30;;;;;;;;;;4972798;28;20722;-73
2022/06/15 00:28:38;;;;;;;3.93;2.60;;;;;;;;;;4953909;28;20234;-73
2022/06/15 00:31:06;;;;;;;4.27;2.60;;;;;;;;;;4971583;28;20213;-73
2022/06/15 00:33:32;;;;;;;2.77;2.23;;;;;;;;;;4988268;28;20308;-73
2022/06/15 00:36:00;;;;;;;2.83;2.53;;;;;;;;;;4972352;28;20324;-74
2022/06/15 00:38:44;;;;;;;4.73;2.53;;;;;;;;;;4958323;28;20662;-73
2022/06/15 00:41:14;;;;;;;3.53;2.53;;;;;;;;;;4954532;28;20229;-73
2022/06/15 00:43:49;;;;;;;2.67;2.30;;;;;;;;;;4972611;28;20626;-74
2022/06/15 00:46:17;;;;;;;3.37;2.47;;;;;;;;;;4969044;28;20224;-73
2022/06/15 00:48:43;;;;;;;4.13;2.70;;;;;;;;;;4971047;28;20668;-74
2022/06/15 00:51:09;;;;;;;4.20;2.90;;;;;;;;;;4953539;28;20225;-73
2022/06/15 00:53:34;;;;;;;3.97;2.70;;;;;;;;;;4971978;28;20228;-73
2022/06/15 00:56:05;;;;;;;2.80;2.60;;;;;;;;;;4959962;28;20279;-73
2022/06/15 00:58:33;;;;;;;3.53;2.60;;;;;;;;;;4959582;28;20230;-73
2022/06/15 01:00:59;;;;;;;3.03;2.47;;;;;;;;;;4958217;28;20237;-74
2022/06/15 01:03:24;;;;;;;3.60;2.80;;;;;;;;;;4954675;28;20231;-72
2022/06/15 01:06:01;;;;;;;3.83;2.70;;;;;;;;;;4972764;28;20258;-73
2022/06/15 01:08:33;;;;;;;3.37;2.50;;;;;;;;;;4968853;28;20222;-73
2022/06/15 01:11:11;;;;;;;3.40;2.60;;;;;;;;;;4956372;28;20252;-73
2022/06/15 01:13:47;;;;;;;3.33;2.60;;;;;;;;;;4989491;28;20233;-73
2022/06/15 01:16:31;;;;;;;4.43;2.53;;;;;;;;;;5002070;28;20228;-72
2022/06/15 01:19:24;;;;;;;5.13;2.70;;;;;;;;;;4985006;28;20237;-72
2022/06/15 01:22:18;;;;;;;2.70;2.30;;;;;;;;;;4986892;28;20360;-73
2022/06/15 01:24:43;;;;;;;3.57;2.47;;;;;;;;;;4970776;28;20594;-73
2022/06/15 01:27:15;;;;;;;2.40;2.20;;;;;;;;;;4987499;28;20225;-72
2022/06/15 01:30:02;;;;;;;2.70;2.40;;;;;;;;;;4985951;28;20826;-73
2022/06/15 01:32:36;;;;;;;3.93;2.50;;;;;;;;;;5003076;28;20252;-72
2022/06/15 01:35:17;;;;;;;2.80;2.50;;;;;;;;;;4986201;28;20343;-73
2022/06/15 01:38:21;;;;;;;3.90;2.70;;;;;;;;;;4988540;28;20247;-73
2022/06/15 01:40:57;;;;;;;3.00;2.40;;;;;;;;;;4986381;28;20320;-72
2022/06/15 01:43:24;;;;;;;5.07;2.60;;;;;;;;;;4970764;28;20229;-73
2022/06/15 01:45:52;;;;;;;3.53;2.53;;;;;;;;;;4971899;28;20316;-74
2022/06/15 01:48:17;;;;;;;3.23;2.50;;;;;;;;;;4987593;28;20719;-74
2022/06/15 01:50:52;;;;;;;3.60;2.50;;;;;;;;;;4957995;28;20233;-72
2022/06/15 01:53:18;;;;;;;3.83;2.30;;;;;;;;;;4934631;28;20225;-74
2022/06/15 01:55:48;;;;;;;2.60;2.40;;;;;;;;;;4987484;28;20230;-73
2022/06/15 01:58:14;;;;;;;2.70;2.07;;;;;;;;;;4969158;28;20233;-74
2022/06/15 02:00:40;;;;;;;2.23;2.03;;;;;;;;;;4971055;28;20713;-73
2022/06/15 02:03:14;;;;;;;2.63;2.30;;;;;;;;;;4969612;28;20221;-73
2022/06/15 02:05:51;;;;;;;2.47;2.27;;;;;;;;;;4967549;28;20269;-72
2022/06/15 02:08:52;;;;;;;3.90;2.63;;;;;;;;;;4953147;28;20225;-73
2022/06/15 02:11:26;;;;;;;3.63;2.33;;;;;;;;;;4957394;28;20225;-73
2022/06/15 02:13:56;;;;;;;1.97;1.87;;;;;;;;;;4956037;28;20224;-73
2022/06/15 02:16:28;;;;;;;3.03;2.20;;;;;;;;;;4985641;28;20324;-73
2022/06/15 02:18:57;;;;;;;2.50;2.10;;;;;;;;;;4952266;28;20229;-73
2022/06/15 02:21:23;;;;;;;3.50;2.00;;;;;;;;;;4937710;28;20241;-72
2022/06/15 02:23:51;;;;;;;3.40;1.97;;;;;;;;;;4950407;28;20231;-73
2022/06/15 02:26:20;;;;;;;2.13;2.00;;;;;;;;;;4936120;28;20292;-72
2022/06/15 02:28:48;;;;;;;2.20;2.00;;;;;;;;;;4973080;28;20712;-74
2022/06/15 02:31:14;;;;;;;3.23;2.20;;;;;;;;;;4952958;28;20229;-73
2022/06/15 02:33:51;;;;;;;2.47;2.00;;;;;;;;;;4955283;28;20226;-73
2022/06/15 02:36:19;;;;;;;2.53;2.30;;;;;;;;;;4968349;28;20263;-73
2022/06/15 02:38:51;;;;;;;2.10;1.90;;;;;;;;;;4956361;28;20252;-73
2022/06/15 02:41:19;;;;;;;3.20;2.10;;;;;;;;;;4965923;28;20840;-72
2022/06/15 02:43:47;;;;;;;1.77;1.67;;;;;;;;;;4920189;28;20218;-73
2022/06/15 02:46:19;;;;;;;2.13;1.67;;;;;;;;;;4934156;28;20226;-73
2022/06/15 02:48:48;;;;;;;2.37;1.90;;;;;;;;;;4948932;28;20218;-73
2022/06/15 02:51:20;;;;;;;3.60;2.00;;;;;;;;;;4949897;28;20218;-73
2022/06/15 02:53:54;;;;;;;3.17;2.03;;;;;;;;;;4972190;28;20325;-73
2022/06/15 02:56:19;;;;;;;3.57;2.23;;;;;;;;;;4925881;28;20265;-73
2022/06/15 02:58:48;;;;;;;3.27;2.33;;;;;;;;;;4954160;28;20229;-72
2022/06/15 03:01:17;;;;;;;2.20;2.00;;;;;;;;;;4969198;28;20230;-73
2022/06/15 03:03:50;;;;;;;2.30;1.93;;;;;;;;;;4968514;28;20297;-73
2022/06/15 03:06:21;;;;;;;2.70;2.30;;;;;;;;;;4957372;28;20264;-73
2022/06/15 03:08:52;;;;;;;2.77;2.27;;;;;;;;;;4969651;28;20254;-72
2022/06/15 03:11:24;;;;;;;2.60;2.40;;;;;;;;;;4953120;28;20304;-73
2022/06/15 03:13:52;;;;;;;2.60;2.10;;;;;;;;;;4945012;28;20607;-72
2022/06/15 03:16:20;;;;;;;2.23;2.03;;;;;;;;;;4956448;28;20750;-73
2022/06/15 03:18:46;;;;;;;2.30;2.10;;;;;;;;;;4967816;28;20225;-73
2022/06/15 03:21:12;;;;;;;2.17;1.90;;;;;;;;;;4954086;28;20233;-72
2022/06/15 03:23:37;;;;;;;2.40;2.20;;;;;;;;;;4973340;28;20245;-74
2022/06/15 03:26:07;;;;;;;2.00;1.90;;;;;;;;;;4973405;28;20229;-73
2022/06/15 03:28:35;;;;;;;2.73;2.13;;;;;;;;;;4938006;28;20222;-73
2022/06/15 03:31:06;;;;;;;3.27;2.13;;;;;;;;;;4949087;28;20233;-72
2022/06/15 03:33:33;;;;;;;2.30;2.10;;;;;;;;;;4947961;28;20217;-72
2022/06/15 03:36:04;;;;;;;2.53;2.30;;;;;;;;;;4969205;28;20253;-73
2022/06/15 03:38:31;;;;;;;2.50;2.20;;;;;;;;;;4956134;28;20225;-73
2022/06/15 03:41:11;;;;;;;4.63;2.30;;;;;;;;;;4973060;28;20298;-75
2022/06/15 03:43:38;;;;;;;2.13;2.00;;;;;;;;;;4964506;28;20275;-73
2022/06/15 03:46:04;;;;;;;2.03;1.90;;;;;;;;;;4971191;28;20252;-73
2022/06/15 03:48:34;;;;;;;2.97;2.00;;;;;;;;;;4977692;28;20226;-73
2022/06/15 03:51:00;;;;;;;3.47;2.03;;;;;;;;;;4971555;28;20240;-72
2022/06/15 03:53:28;;;;;;;2.90;2.00;;;;;;;;;;4985957;28;20600;-73
2022/06/15 03:55:56;;;;;;;3.70;2.00;;;;;;;;;;4960034;28;20328;-73
2022/06/15 03:58:26;;;;;;;1.93;1.70;;;;;;;;;;4970862;28;20232;-74
2022/06/15 04:00:54;;;;;;;3.67;1.93;;;;;;;;;;4976113;28;20232;-73
2022/06/15 04:03:25;;;;;;;2.77;2.10;;;;;;;;;;4972614;28;20222;-73
2022/06/15 04:06:06;;;;;;;3.37;2.17;;;;;;;;;;4970589;28;20225;-74
2022/06/15 04:08:38;;;;;;;4.17;2.20;;;;;;;;;;4967832;28;20808;-74
2022/06/15 04:11:58;;;;;;;3.40;2.03;;;;;;;;;;4952363;28;20775;-76
2022/06/15 04:14:06;;;;;;;3.00;2.30;;;;;;;;;;4955932;28;20317;-74
2022/06/15 04:16:34;;;;;;;2.23;2.00;;;;;;;;;;4968874;28;20722;-73
2022/06/15 04:19:02;;;;;;;2.60;2.30;;;;;;;;;;4967743;28;20234;-73
2022/06/15 04:21:30;;;;;;;3.20;2.20;;;;;;;;;;4924027;28;20226;-73
2022/06/15 04:23:58;;;;;;;2.00;1.80;;;;;;;;;;4972639;28;20279;-74
2022/06/15 04:26:26;;;;;;;3.47;2.10;;;;;;;;;;4953167;28;20595;-73
2022/06/15 04:28:54;;;;;;;2.33;2.13;;;;;;;;;;4975163;28;20221;-75
2022/06/15 04:31:26;;;;;;;3.53;2.40;;;;;;;;;;4966385;28;20229;-74
2022/06/15 04:33:55;;;;;;;4.03;2.40;;;;;;;;;;4935019;28;20226;-73
2022/06/15 04:36:26;;;;;;;2.70;2.23;;;;;;;;;;4935335;28;20260;-73
2022/06/15 04:38:57;;;;;;;3.47;2.30;;;;;;;;;;4937728;28;20236;-72
2022/06/15 04:41:28;;;;;;;2.20;2.10;;;;;;;;;;4969874;28;20230;-73
2022/06/15 04:43:56;;;;;;;2.63;2.37;;;;;;;;;;4935308;28;20567;-74
2022/06/15 04:46:21;;;;;;;3.33;2.67;;;;;;;;;;4916977;28;1091413;-72
2022/06/15 04:48:48;;;;;;;7.30;2.50;;;;;;;;;;4955701;28;20224;-72
2022/06/15 04:51:20;;;;;;;4.77;2.93;;;;;;;;;;4954208;28;20221;-74
2022/06/15 04:53:49;;;;;;;4.90;2.67;;;;;;;;;;4967307;28;20301;-74
2022/06/15 04:56:17;;;;;;;4.40;2.83;;;;;;;;;;4953169;28;20842;-73
2022/06/15 04:58:47;;;;;;;3.80;2.40;;;;;;;;;;4940078;28;20245;-75
2022/06/15 05:01:15;;;;;;;3.13;2.77;;;;;;;;;;4970344;28;20225;-72
2022/06/15 05:03:46;;;;;;;2.83;2.33;;;;;;;;;;4970133;28;20256;-73
2022/06/15 05:06:35;;;;;;;3.23;2.40;;;;;;;;;;4970569;28;20217;-73
2022/06/15 05:09:12;;;;;;;3.90;2.80;;;;;;;;;;4953961;28;20229;-75
2022/06/15 05:11:44;;;;;;;4.43;2.90;;;;;;;;;;4955667;28;20222;-73
2022/06/15 05:14:12;;;;;;;4.90;2.70;;;;;;;;;;4954062;28;20218;-74
2022/06/15 05:16:42;;;;;;;7.40;2.87;;;;;;;;;;4960449;28;20245;-74
2022/06/15 05:19:12;;;;;;;3.60;2.83;;;;;;;;;;4964813;28;20221;-73
2022/06/15 05:21:40;;;;;;;2.60;2.40;;;;;;;;;;4941799;28;20734;-74
2022/06/15 05:24:07;;;;;;;6.40;2.53;;;;;;;;;;4959983;28;20217;-74
2022/06/15 05:26:49;;;;;;;3.83;2.60;;;;;;;;;;4932823;28;20218;-73
2022/06/15 05:29:15;;;;;;;4.13;2.60;;;;;;;;;;4927001;28;20211;-74
2022/06/15 05:31:42;;;;;;;4.17;2.60;;;;;;;;;;4966572;28;20263;-74
2022/06/15 05:34:11;;;;;;;5.70;3.07;;;;;;;;;;4951903;28;20722;-74
2022/06/15 05:36:36;;;;;;;4.57;2.47;;;;;;;;;;4944117;28;20313;-74
2022/06/15 05:39:12;;;;;;;3.60;2.77;;;;;;;;;;4927398;28;20224;-74
2022/06/15 05:41:40;;;;;;;4.40;2.20;;;;;;;;;;4935235;28;20233;-73
2022/06/15 05:45:07;;;;;;;3.80;2.23;;;;;;;;;;4951109;28;20226;-73
2022/06/15 05:47:02;;;;;;;4.35;2.40;;;;;;;;;;4928216;28;20225;-74
2022/06/15 05:49:42;;;;;;;2.73;2.20;;;;;;;;;;4956464;28;20233;-73
2022/06/15 05:52:11;;;;;;;2.45;1.90;;;;;;;;;;4969224;28;20656;-73
2022/06/15 05:54:42;;;;;;;2.95;1.75;;;;;;;;;;4970749;28;20229;-73
2022/06/15 05:57:11;;;;;;;3.50;2.00;;;;;;;;;;4970427;28;20268;-74
2022/06/15 05:59:38;;;;;;;2.55;2.00;;;;;;;;;;4973692;28;20248;-74
2022/06/15 06:02:04;;;;;;;4.70;2.15;;;;;;;;;;4966920;28;20309;-74
2022/06/15 06:04:32;;;;;;;4.32;2.08;;;;;;;;;;4955018;28;20213;-74
2022/06/15 06:06:57;;;;;;;3.20;1.65;;;;;;;;;;4965077;28;20225;-74
2022/06/15 06:09:23;;;;;;;3.17;1.58;;;;;;;;;;4935212;28;20253;-73
2022/06/15 06:11:51;;;;;;;2.67;1.48;;;;;;;;;;4950000;28;20237;-74
2022/06/15 06:14:16;;;;;;;2.17;1.58;;;;;;;;;;4947061;28;20219;-74
2022/06/15 06:16:44;;;;;;;4.07;1.88;;;;;;;;;;4940445;28;20612;-73
2022/06/15 06:19:09;;;;;;;3.92;1.55;;;;;;;;;;4986275;28;20649;-74
2022/06/15 06:21:37;;;;;;;5.53;1.52;;;;;;;;;;4986457;28;20727;-75
2022/06/15 06:24:05;;;;;;;4.28;1.52;;;;;;;;;;4986142;28;20320;-74
2022/06/15 06:26:31;;;;;;;2.70;1.50;;;;;;;;;;4988435;28;20229;-74
2022/06/15 06:29:02;;;;;;;4.78;1.40;;;;;;;;;;4971071;28;20235;-74
2022/06/15 06:31:30;;;;;;;3.42;1.40;;;;;;;;;;4985659;28;20296;-74
2022/06/15 06:33:55;;;;;;;3.03;1.02;;;;;;;;;;4970809;28;20677;-75
2022/06/15 06:36:32;;;;;;;1.63;1.10;;;;;;;;;;4970798;28;20237;-74
2022/06/15 06:39:01;;;;;;;4.15;1.60;;;;;;;;;;4970031;28;20247;-74
2022/06/15 06:41:27;;;;;;;2.92;1.17;;;;;;;;;;4972077;28;20223;-74
2022/06/15 06:43:55;;;;;;;1.63;1.20;;;;;;;;;;4942622;28;20231;-74
2022/06/15 06:46:21;;;;;;;2.75;1.30;;;;;;;;;;4976776;28;20221;-75
2022/06/15 06:48:46;;;;;;;2.47;1.50;;;;;;;;;;4973861;28;20251;-74
2022/06/15 06:51:12;;;;;;;3.70;1.40;;;;;;;;;;4988412;28;20217;-74
2022/06/15 06:53:40;;;;;;;3.78;1.35;;;;;;;;;;4974948;28;20232;-74
2022/06/15 06:56:07;;;;;;;4.40;1.52;;;;;;;;;;4991352;28;20225;-73
2022/06/15 06:58:33;;;;;;;3.20;1.45;;;;;;;;;;4990675;28;20241;-73
2022/06/15 07:01:01;;;;;;;2.70;1.25;;;;;;;;;;4957139;28;20225;-73
2022/06/15 07:03:33;;;;;;;2.42;1.20;;;;;;;;;;4972734;28;20996;-74
2022/06/15 07:06:03;;;;;;;2.03;1.30;;;;;;;;;;4973219;28;20284;-75
2022/06/15 07:08:29;;;;;;;1.67;1.10;;;;;;;;;;4952904;28;20229;-74
2022/06/15 07:10:56;;;;;;;3.65;1.33;;;;;;;;;;4948497;28;20218;-74
2022/06/15 07:13:24;;;;;;;5.03;1.42;;;;;;;;;;4955373;28;20835;-73
2022/06/15 07:15:54;;;;;;;6.85;1.55;;;;;;;;;;4958052;28;20250;-72
2022/06/15 07:18:21;;;;;;;4.05;1.38;;;;;;;;;;4967073;28;20249;-73
2022/06/15 07:20:49;;;;;;;4.15;1.38;;;;;;;;;;4961313;28;20217;-73
2022/06/15 07:23:17;;;;;;;4.35;1.33;;;;;;;;;;4955690;28;20692;-74
2022/06/15 07:25:42;;;;;;;4.43;1.40;;;;;;;;;;4979619;28;20233;-73
2022/06/15 07:28:08;;;;;;;2.67;1.40;;;;;;;;;;4997797;28;20216;-74
2022/06/15 07:30:36;;;;;;;3.80;1.42;;;;;;;;;;5000476;28;20961;-74
2022/06/15 07:33:02;;;;;;;2.70;1.27;;;;;;;;;;4981310;28;20228;-72
2022/06/15 07:35:30;;;;;;;3.90;1.58;;;;;;;;;;4955608;28;20236;-74
2022/06/15 07:37:58;;;;;;;6.22;1.92;;;;;;;;;;4968498;28;20225;-74
2022/06/15 07:40:27;;;;;;;3.10;1.38;;;;;;;;;;4983062;28;20229;-75
2022/06/15 07:42:54;;;;;;;4.22;1.70;;;;;;;;;;4992953;28;20504;-73
2022/06/15 07:45:20;;;;;;;2.05;1.30;;;;;;;;;;4967700;28;20252;-75
2022/06/15 07:50:57;;;;;;;4.35;1.40;;;;;;;;;;4976607;28;20240;-74
2022/06/15 07:53:23;;;;;;;3.38;1.40;;;;;;;;;;4901486;28;20221;-76
2022/06/15 07:55:57;;;;;;;3.70;1.33;;;;;;;;;;4917410;28;20880;-75
2022/06/15 07:58:23;;;;;;;3.53;1.33;;;;;;;;;;4949635;28;20244;-74
2022/06/15 08:00:51;;;;;;;5.95;1.60;;;;;;;;;;4983347;28;20230;-73
2022/06/15 08:03:17;;;;;;;4.10;1.50;;;;;;;;;;4971265;28;20213;-71
2022/06/15 08:05:45;;;;;;;2.28;1.45;;;;;;;;;;4972931;28;20229;-72
2022/06/15 08:08:17;;;;;;;3.75;1.88;;;;;;;;;;4972224;28;20221;-70
2022/06/15 08:10:46;;;;;;;5.00;1.63;;;;;;;;;;4973523;28;20579;-72
2022/06/15 08:13:14;;;;;;;4.88;1.33;;;;;;;;;;4960571;28;20245;-71
2022/06/15 08:15:41;;;;;;;2.47;1.67;;;;;;;;;;4970549;28;20236;-73
2022/06/15 08:18:13;;;;;;;4.32;1.67;;;;;;;;;;4971955;28;20226;-72
2022/06/15 08:21:03;;;;;;;3.83;1.50;;;;;;;;;;4926307;28;20289;-71
2022/06/15 08:23:32;;;;;;;3.30;1.30;;;;;;;;;;4945086;28;20719;-73
2022/06/15 08:25:59;;;;;;;4.13;1.50;;;;;;;;;;4946641;28;20877;-71
2022/06/15 08:28:28;;;;;;;4.78;1.40;;;;;;;;;;4970722;28;20312;-72
2022/06/15 08:30:56;;;;;;;3.20;1.27;;;;;;;;;;4971764;28;20225;-72
2022/06/15 08:33:22;;;;;;;2.80;1.30;;;;;;;;;;4986660;28;20228;-69
2022/06/15 08:35:47;;;;;;;3.72;1.70;;;;;;;;;;4955792;28;20221;-73
2022/06/15 08:38:15;;;;;;;2.28;1.15;;;;;;;;;;4987301;28;20321;-73
2022/06/15 08:41:03;;;;;;;4.65;1.50;;;;;;;;;;4953242;28;20569;-73
2022/06/15 08:43:46;;;;;;;4.75;1.42;;;;;;;;;;4969964;28;20229;-72
2022/06/15 08:46:41;;;;;;;5.30;1.60;;;;;;;;;;4988509;28;20233;-70
2022/06/15 08:49:19;;;;;;;3.80;1.48;;;;;;;;;;4987844;28;20225;-71
2022/06/15 08:51:45;;;;;;;3.05;1.48;;;;;;;;;;4971695;28;20216;-72
2022/06/15 08:54:32;;;;;;;3.30;1.73;;;;;;;;;;4986723;28;20367;-73
2022/06/15 08:57:09;;;;;;;2.72;1.40;;;;;;;;;;4998438;28;20229;-71
2022/06/15 08:59:51;;;;;;;4.03;1.50;;;;;;;;;;4996232;28;20260;-72
2022/06/15 09:02:24;;;;;;;3.22;1.40;;;;;;;;;;4955638;28;20650;-71
2022/06/15 09:05:14;;;;;;;4.10;1.80;;;;;;;;;;4969945;28;20695;-71
2022/06/15 09:07:42;;;;;;;5.15;1.73;;;;;;;;;;4988788;28;20225;-71
2022/06/15 09:10:23;;;;;;;3.25;1.60;;;;;;;;;;4984239;28;20275;-75
2022/06/15 09:13:07;;;;;;;3.13;1.50;;;;;;;;;;4953630;28;20713;-73
2022/06/15 09:15:55;;;;;;;4.70;1.83;;;;;;;;;;5004203;28;20229;-77
2022/06/15 09:18:28;;;;;;;2.60;1.40;;;;;;;;;;5004568;28;20236;-74
2022/06/15 09:21:07;;;;;;;4.07;1.50;;;;;;;;;;4972473;28;20308;-76
2022/06/15 09:23:57;;;;;;;3.95;1.77;;;;;;;;;;4970497;28;20248;-75
2022/06/15 09:26:25;;;;;;;3.70;1.52;;;;;;;;;;4963720;28;20301;-74
2022/06/15 09:29:00;;;;;;;3.80;1.40;;;;;;;;;;4971146;28;20324;-76
2022/06/15 09:31:29;;;;;;;5.85;1.70;;;;;;;;;;4955694;28;20236;-74
2022/06/15 09:34:04;;;;;;;3.58;1.50;;;;;;;;;;4970843;28;20260;-74
2022/06/15 09:36:46;;;;;;;4.43;1.58;;;;;;;;;;4954125;28;20711;-73
2022/06/15 09:39:14;;;;;;;3.25;1.60;;;;;;;;;;4972517;28;20609;-75
2022/06/15 09:42:12;;;;;;;3.55;1.70;;;;;;;;;;4941342;28;20217;-73
2022/06/15 09:44:59;;;;;;;2.63;1.63;;;;;;;;;;4961260;28;20264;-71
2022/06/15 09:47:45;;;;;;;2.25;1.38;;;;;;;;;;4953166;28;20225;-76
2022/06/15 09:50:28;;;;;;;3.97;1.90;;;;;;;;;;4986286;28;20213;-75
2022/06/15 09:53:02;;;;;;;6.25;1.80;;;;;;;;;;4976372;28;20229;-73
2022/06/15 09:55:34;;;;;;;3.95;1.70;;;;;;;;;;4969997;28;20237;-73
2022/06/15 09:57:59;;;;;;;2.45;1.63;;;;;;;;;;4967953;28;20237;-74
2022/06/15 10:00:25;;;;;;;2.92;1.85;;;;;;;;;;4972914;28;20233;-77
2022/06/15 10:02:59;;;;;;;3.92;1.65;;;;;;;;;;4981863;28;20225;-74
2022/06/15 10:05:28;;;;;;;2.90;1.80;;;;;;;;;;4952046;28;20228;-72
2022/06/15 10:07:54;;;;;;;4.45;1.70;;;;;;;;;;4953733;28;20356;-75
2022/06/15 10:10:28;;;;;;;4.93;1.70;;;;;;;;;;4969485;28;20233;-72
2022/06/15 10:15:25;;;;;;;4.78;1.80;;;;;;;;;;4972833;28;20244;-75
2022/06/15 10:17:53;;;;;;;2.97;1.42;;;;;;;;;;4978083;28;20245;-74
2022/06/15 10:20:25;;;;;;;3.65;1.55;;;;;;;;;;4973464;28;20303;-72
2022/06/15 10:22:52;;;;;;;3.80;1.80;;;;;;;;;;4973166;28;20228;-73
2022/06/15 10:25:20;;;;;;;4.97;1.65;;;;;;;;;;4971501;28;20221;-74
2022/06/15 10:27:48;;;;;;;2.55;1.73;;;;;;;;;;4973861;28;20308;-74
2022/06/15 10:30:20;;;;;;;3.92;1.73;;;;;;;;;;4971869;28;20640;-74
2022/06/15 10:33:01;;;;;;;7.60;1.83;;;;;;;;;;4990309;28;20825;-76
2022/06/15 10:35:30;;;;;;;3.38;1.73;;;;;;;;;;4972646;28;20225;-75
2022/06/15 10:38:01;;;;;;;6.45;1.48;;;;;;;;;;4949948;28;20238;-70
2022/06/15 10:40:31;;;;;;;6.22;1.95;;;;;;;;;;4960610;28;20601;-71
2022/06/15 10:43:05;;;;;;;2.75;1.45;;;;;;;;;;4967657;28;20612;-70
2022/06/15 10:45:54;;;;;;;3.08;1.52;;;;;;;;;;4972266;28;20263;-71
2022/06/15 10:48:33;;;;;;;3.55;1.90;;;;;;;;;;4972433;28;20234;-70
2022/06/15 10:51:10;;;;;;;4.32;1.92;;;;;;;;;;4987471;28;20291;-70
2022/06/15 10:53:43;;;;;;;3.50;1.80;;;;;;;;;;4967962;28;20957;-70
2022/06/15 11:02:31;;;;;;;3.13;1.83;;;;;;;;;;4965395;28;20221;-72
2022/06/15 11:05:04;;;;;;;6.95;1.67;;;;;;;;;;4987132;28;20259;-70
2022/06/15 11:07:41;;;;;;;2.03;1.60;;;;;;;;;;4959288;28;20225;-72
2022/06/15 11:10:19;;;;;;;3.03;1.55;;;;;;;;;;4925666;28;20214;-73
2022/06/15 11:12:51;;;;;;;4.43;1.70;;;;;;;;;;4951619;28;20226;-71
2022/06/15 11:15:16;;;;;;;4.05;1.65;;;;;;;;;;4971253;28;20229;-70
2022/06/15 11:18:04;;;;;;;4.80;1.85;;;;;;;;;;4982331;28;20608;-70
2022/06/15 11:20:38;;;;;;;3.97;1.67;;;;;;;;;;4940722;28;20217;-72
2022/06/15 11:23:24;;;;;;;3.83;1.80;;;;;;;;;;4982986;28;20218;-70
2022/06/15 11:28:57;;;;;;;3.53;1.88;;;;;;;;;;4988177;28;21036;-70
2022/06/15 11:31:25;;;;;;;5.43;1.90;;;;;;;;;;4986869;28;20248;-70
2022/06/15 11:33:57;;;;;;;5.45;1.92;;;;;;;;;;4977454;28;20786;-70
2022/06/15 11:36:48;;;;;;;4.07;1.80;;;;;;;;;;5004727;28;20333;-73
2022/06/15 11:39:25;;;;;;;4.15;1.70;;;;;;;;;;4989565;28;20333;-72
2022/06/15 11:41:52;;;;;;;3.78;2.03;;;;;;;;;;4946099;28;20229;-71
2022/06/15 11:44:21;;;;;;;5.70;1.83;;;;;;;;;;4974124;28;20228;-71
2022/06/15 11:47:12;;;;;;;2.95;1.50;;;;;;;;;;4957654;28;20263;-69
2022/06/15 11:49:59;;;;;;;4.93;1.90;;;;;;;;;;4963963;28;20240;-73
2022/06/15 11:52:31;;;;;;;4.10;1.80;;;;;;;;;;4984344;28;20332;-71
2022/06/15 11:55:30;;;;;;;4.50;1.80;;;;;;;;;;4970253;28;20222;-70
2022/06/15 11:58:27;;;;;;;3.38;1.75;;;;;;;;;;4969936;28;20245;-72
2022/06/15 12:01:26;;;;;;;4.18;2.00;;;;;;;;;;4954198;28;20213;-73
2022/06/15 12:04:13;;;;;;;2.70;1.60;;;;;;;;;;4977900;28;20267;-71
2022/06/15 12:06:54;;;;;;;4.13;1.98;;;;;;;;;;4982327;28;20245;-73
2022/06/15 12:09:35;;;;;;;2.83;1.67;;;;;;;;;;4985778;28;20223;-71
2022/06/15 12:12:41;;;;;;;2.80;1.50;;;;;;;;;;4985822;28;20272;-72
2022/06/15 12:15:07;;;;;;;2.88;1.65;;;;;;;;;;4973993;28;20229;-72
2022/06/15 12:17:40;;;;;;;3.03;1.70;;;;;;;;;;4969861;28;20244;-71
2022/06/15 12:20:29;;;;;;;2.75;1.60;;;;;;;;;;4984799;28;20552;-72
2022/06/15 12:23:06;;;;;;;3.65;1.60;;;;;;;;;;4981780;28;20222;-70
2022/06/15 12:25:39;;;;;;;4.20;1.83;;;;;;;;;;4971535;28;20295;-71
2022/06/15 12:28:17;;;;;;;4.18;1.85;;;;;;;;;;4968554;28;20217;-72
2022/06/15 12:30:55;;;;;;;3.35;1.60;;;;;;;;;;4971421;28;20253;-69
2022/06/15 12:33:42;;;;;;;3.10;1.80;;;;;;;;;;4984491;28;20598;-72
2022/06/15 12:36:24;;;;;;;4.25;1.85;;;;;;;;;;4968981;28;20344;-73
2022/06/15 12:39:05;;;;;;;3.33;1.73;;;;;;;;;;4971498;28;20283;-69
2022/06/15 12:44:21;;;;;;;2.97;1.60;;;;;;;;;;4989189;28;21010;-73
2022/06/15 12:46:47;;;;;;;3.50;1.90;;;;;;;;;;4950239;28;20217;-69
2022/06/15 12:49:44;;;;;;;4.07;1.80;;;;;;;;;;4983524;28;20304;-69
2022/06/15 12:52:15;;;;;;;3.22;1.58;;;;;;;;;;4916190;28;20225;-70
2022/06/15 12:54:58;;;;;;;3.50;1.50;;;;;;;;;;4984866;28;20217;-69
2022/06/15 12:57:48;;;;;;;2.10;1.38;;;;;;;;;;4984105;28;20229;-69
2022/06/15 13:00:33;;;;;;;3.88;1.73;;;;;;;;;;4984493;28;20217;-71
2022/06/15 13:03:40;;;;;;;3.33;1.88;;;;;;;;;;5002028;28;20365;-71
2022/06/15 13:06:26;;;;;;;4.70;1.70;;;;;;;;;;4932951;29;20721;-72
2022/06/15 13:09:21;;;;;;;4.63;1.75;;;;;;;;;;4914166;29;20226;-71
2022/06/15 13:12:08;;;;;;;3.17;1.60;;;;;;;;;;4971084;28;20229;-74
2022/06/15 13:14:40;;;;;;;3.78;1.63;;;;;;;;;;4981482;28;20236;-73
2022/06/15 13:17:15;;;;;;;2.55;1.40;;;;;;;;;;4967251;28;20225;-73
2022/06/15 13:19:50;;;;;;;2.92;1.50;;;;;;;;;;4954572;28;20220;-72
2022/06/15 13:22:21;;;;;;;4.57;1.40;;;;;;;;;;4966369;28;20233;-72
2022/06/15 13:24:56;;;;;;;3.08;1.50;;;;;;;;;;4964824;28;20244;-71
2022/06/15 13:27:30;;;;;;;3.65;1.60;;;;;;;;;;4997187;28;21400;-73
2022/06/15 13:30:18;;;;;;;2.33;1.55;;;;;;;;;;4985509;28;20213;-71
2022/06/15 13:32:54;;;;;;;3.13;1.70;;;;;;;;;;4999407;28;20221;-72
2022/06/15 13:35:31;;;;;;;3.40;1.70;;;;;;;;;;4983139;28;20275;-73
2022/06/15 13:38:03;;;;;;;2.00;1.55;;;;;;;;;;4966718;28;20221;-72
2022/06/15 13:40:53;;;;;;;3.25;1.58;;;;;;;;;;4982018;28;20226;-73
2022/06/15 13:43:25;;;;;;;2.13;1.58;;;;;;;;;;4983996;28;20209;-73
2022/06/15 13:45:55;;;;;;;3.03;1.63;;;;;;;;;;4969554;28;20323;-72
2022/06/15 13:48:42;;;;;;;3.47;1.60;;;;;;;;;;4990651;28;20240;-72
2022/06/15 13:51:24;;;;;;;4.05;1.58;;;;;;;;;;4980874;28;20221;-74
2022/06/15 13:54:19;;;;;;;1.35;1.20;;;;;;;;;;4980872;28;20222;-72
2022/06/15 13:57:04;;;;;;;4.35;1.60;;;;;;;;;;4996122;28;20225;-73
2022/06/15 13:59:41;;;;;;;3.38;1.70;;;;;;;;;;4994051;28;20289;-72
2022/06/15 14:02:30;;;;;;;3.28;1.70;;;;;;;;;;4974951;28;20276;-72
2022/06/15 14:05:29;;;;;;;4.65;1.90;;;;;;;;;;4992697;28;20221;-73
2022/06/15 14:08:19;;;;;;;4.03;1.83;;;;;;;;;;4980005;28;20221;-72
2022/06/15 14:11:13;;;;;;;2.85;1.80;;;;;;;;;;4987903;28;20741;-73
2022/06/15 14:13:50;;;;;;;2.83;1.80;;;;;;;;;;5002845;28;21019;-70
2022/06/15 14:16:18;;;;;;;2.58;1.80;;;;;;;;;;4982450;28;20229;-71
2022/06/15 14:18:52;;;;;;;2.97;1.50;;;;;;;;;;5005108;28;20227;-73
2022/06/15 14:21:20;;;;;;;4.57;1.70;;;;;;;;;;4989482;28;20660;-73
2022/06/15 14:23:48;;;;;;;3.60;1.67;;;;;;;;;;4989858;28;20236;-72
2022/06/15 14:26:19;;;;;;;2.47;1.60;;;;;;;;;;4989265;28;20225;-73
2022/06/15 14:28:55;;;;;;;2.03;1.48;;;;;;;;;;4985693;28;20583;-74
2022/06/15 14:31:24;;;;;;;4.68;1.70;;;;;;;;;;5002522;28;20233;-72
2022/06/15 14:33:58;;;;;;;3.30;1.48;;;;;;;;;;4972992;28;20250;-72
2022/06/15 14:36:26;;;;;;;2.50;1.67;;;;;;;;;;4975435;28;20252;-73
2022/06/15 14:39:10;;;;;;;3.92;1.77;;;;;;;;;;4986800;28;20241;-76
2022/06/15 14:41:36;;;;;;;3.28;1.48;;;;;;;;;;4984654;28;20316;-72
2022/06/15 14:44:03;;;;;;;4.70;1.75;;;;;;;;;;4969861;28;20316;-72
2022/06/15 14:46:39;;;;;;;2.25;1.55;;;;;;;;;;4985751;28;20596;-73
2022/06/15 14:49:05;;;;;;;3.83;1.98;;;;;;;;;;4964371;28;20229;-74
2022/06/15 14:51:31;;;;;;;2.75;1.80;;;;;;;;;;4948996;28;20620;-73
2022/06/15 14:54:03;;;;;;;2.83;1.70;;;;;;;;;;4949277;28;20226;-75
2022/06/15 14:56:32;;;;;;;3.70;1.67;;;;;;;;;;4948155;28;20229;-74
2022/06/15 14:59:09;;;;;;;4.88;1.60;;;;;;;;;;4967218;28;20300;-74
2022/06/15 15:01:55;;;;;;;3.10;1.50;;;;;;;;;;4970438;28;20758;-73
2022/06/15 15:04:23;;;;;;;3.67;1.80;;;;;;;;;;4990819;28;20225;-73
2022/06/15 15:07:01;;;;;;;4.18;2.10;;;;;;;;;;4972724;28;20254;-74
2022/06/15 15:09:30;;;;;;;3.35;1.50;;;;;;;;;;4955556;28;20282;-74
2022/06/15 15:11:57;;;;;;;3.30;1.95;;;;;;;;;;4952603;28;20210;-73
2022/06/15 15:14:27;;;;;;;4.72;1.90;;;;;;;;;;4973680;28;20252;-74
2022/06/15 15:17:07;;;;;;;3.85;1.80;;;;;;;;;;4939720;28;20667;-73
2022/06/15 15:19:35;;;;;;;4.03;1.98;;;;;;;;;;4972567;28;20722;-74
2022/06/15 15:22:05;;;;;;;2.75;1.90;;;;;;;;;;4970763;28;20649;-74
2022/06/15 15:24:33;;;;;;;2.67;1.58;;;;;;;;;;4987976;28;20248;-73
2022/06/15 15:27:11;;;;;;;5.32;1.75;;;;;;;;;;4988191;28;20279;-75
2022/06/15 15:35:32;;;;;;;4.47;1.70;;;;;;;;;;4962214;28;20224;-72
2022/06/15 15:38:13;;;;;;;3.95;1.92;;;;;;;;;;5006451;28;20237;-73
2022/06/15 15:40:38;;;;;;;2.78;1.90;;;;;;;;;;4988692;28;20224;-73
2022/06/15 15:43:06;;;;;;;4.05;2.15;;;;;;;;;;4988281;28;20225;-73